Terminal Aerodrome Forecast
Issued by NWS

Home | Current Version | Previous Version | Graphics & Text | Print | Product List | Glossary On
Versions: 1 2 3 4 5 6 7 8 9 10 11 12 13 14 15 16 17 18 19 20 21 22 23 24 25 26 27 28 29 30 31 32 33
000
FTUS43 KLOT 261600 AAB
TAFDPA
TAF AMD
KDPA 261607Z 2616/2712 23007KT P6SM BKN020
     FM261800 26008KT P6SM SCT030 BKN100
     FM270000 21004KT P6SM BKN100
     FM270500 24004KT 3SM BR FEW010 BKN100=

USA.gov is the U.S. government's official web portal to all federal, state and local government web resources and services.